createdAt,value
2023-04-15T00:01:01.691Z,100795.63
2023-04-15T00:03:32.444Z,100800.78
2023-04-15T00:06:02.995Z,100789.72
2023-04-15T00:08:33.193Z,100794.66
2023-04-15T00:11:06.976Z,100800.41
2023-04-15T00:13:37.299Z,100800.38
2023-04-15T00:16:08.970Z,100805.50
2023-04-15T00:18:39.322Z,100812.75
2023-04-15T00:21:09.416Z,100813.16
2023-04-15T00:23:39.652Z,100819.19
2023-04-15T00:26:10.020Z,100821.19
2023-04-15T00:28:40.783Z,100814.75
2023-04-15T00:31:11.240Z,100821.38
2023-04-15T00:33:41.578Z,100831.19
2023-04-15T00:36:12.690Z,100837.03
2023-04-15T00:38:43.498Z,100840.78
2023-04-15T00:41:14.682Z,100838.69
2023-04-15T00:43:45.065Z,100842.00
2023-04-15T00:46:16.780Z,100846.97
2023-04-15T00:48:47.714Z,100848.19
2023-04-15T00:51:18.180Z,100844.00
2023-04-15T00:53:48.286Z,100848.97
2023-04-15T00:56:18.718Z,100849.34
2023-04-15T00:58:49.713Z,100846.41
2023-04-15T01:01:23.389Z,100863.25
2023-04-15T01:03:53.873Z,100863.66
2023-04-15T01:06:25.012Z,100860.50
2023-04-15T01:08:55.705Z,100855.91
2023-04-15T01:11:27.430Z,100864.66
2023-04-15T01:14:00.992Z,100858.78
2023-04-15T01:16:32.111Z,100871.28
2023-04-15T01:19:03.478Z,100862.13
2023-04-15T01:21:34.813Z,100865.41
2023-04-15T01:24:11.955Z,100874.97
2023-04-15T01:26:43.497Z,100861.41
2023-04-15T01:29:14.919Z,100873.28
2023-04-15T01:31:54.472Z,100871.50
2023-04-15T01:34:43.705Z,100877.38
2023-04-15T01:37:32.414Z,100863.22
2023-04-15T01:40:02.335Z,100864.84
2023-04-15T01:42:32.210Z,100864.41
2023-04-15T01:45:03.709Z,100871.50
2023-04-15T01:47:35.338Z,100872.31
2023-04-15T01:50:06.966Z,100870.59
2023-04-15T01:52:39.025Z,100872.25
2023-04-15T01:55:11.122Z,100873.06
2023-04-15T01:57:43.065Z,100874.50
2023-04-15T02:00:14.608Z,100857.34
2023-04-15T02:02:46.610Z,100864.41
2023-04-15T02:05:19.057Z,100860.41
2023-04-15T02:07:51.826Z,100859.75
2023-04-15T02:10:23.334Z,100851.97
2023-04-15T02:12:55.711Z,100851.31
2023-04-15T02:15:27.405Z,100845.44
2023-04-15T02:17:59.329Z,100854.75
2023-04-15T02:20:32.253Z,100845.34
2023-04-15T02:23:03.646Z,100853.25
2023-04-15T02:25:35.690Z,100861.56
2023-04-15T02:28:09.314Z,100851.06
2023-04-15T02:30:42.296Z,100863.34
2023-04-15T02:33:16.267Z,100851.00
2023-04-15T02:35:48.006Z,100858.09
2023-04-15T02:38:19.441Z,100822.81
2023-04-15T02:40:51.863Z,100848.44
2023-04-15T02:43:23.715Z,100854.22
2023-04-15T02:45:56.246Z,100852.13
2023-04-15T02:48:27.773Z,100849.19
2023-04-15T02:51:15.673Z,100847.91
2023-04-15T02:53:47.528Z,100844.94
2023-04-15T02:56:20.895Z,100844.50
2023-04-15T02:58:52.803Z,100836.13
2023-04-15T03:01:24.266Z,100827.75
2023-04-15T03:03:56.233Z,100826.47
2023-04-15T03:06:28.518Z,100823.53
2023-04-15T03:09:01.896Z,100833.91
2023-04-15T03:11:42.002Z,100820.94
2023-04-15T03:14:14.567Z,100822.59
2023-04-15T03:16:52.001Z,100822.13
2023-04-15T03:19:23.708Z,100816.25
2023-04-15T03:21:55.064Z,100805.97
2023-04-15T03:24:26.510Z,100812.84
2023-04-15T03:27:00.458Z,100800.69
2023-04-15T03:29:32.153Z,100787.72
2023-04-15T03:32:03.590Z,100783.94
2023-04-15T03:34:38.232Z,100785.34
2023-04-15T03:37:29.041Z,100779.69
2023-04-15T03:40:00.689Z,100766.72
2023-04-15T03:42:32.077Z,100771.69
2023-04-15T03:45:03.422Z,100772.50
2023-04-15T03:47:34.935Z,100765.09
2023-04-15T03:50:06.480Z,100758.44
2023-04-15T03:52:38.131Z,100759.38
2023-04-15T03:55:11.264Z,100759.63
2023-04-15T03:57:42.990Z,100754.41
2023-04-15T04:00:14.698Z,100747.81
2023-04-15T04:02:47.441Z,100755.22
2023-04-15T04:05:18.868Z,100730.44
2023-04-15T04:07:50.229Z,100729.38
2023-04-15T04:10:21.675Z,100683.81
2023-04-15T04:12:53.640Z,100717.22
2023-04-15T04:15:25.448Z,100718.91
2023-04-15T04:17:57.199Z,100715.94
2023-04-15T04:20:28.931Z,100706.72
2023-04-15T04:23:00.399Z,100702.97
2023-04-15T04:25:31.801Z,100700.84
2023-04-15T04:28:03.367Z,100693.28
2023-04-15T04:30:35.220Z,100698.22
2023-04-15T04:33:06.834Z,100685.28
2023-04-15T04:35:39.302Z,100688.59
2023-04-15T04:38:10.803Z,100686.00
2023-04-15T04:40:42.599Z,100681.25
2023-04-15T04:43:14.721Z,100676.53
2023-04-15T04:45:46.427Z,100669.34
2023-04-15T04:48:18.432Z,100673.81
2023-04-15T04:50:50.027Z,100664.13
2023-04-15T04:53:21.539Z,100657.97
2023-04-15T04:55:53.703Z,100662.91
2023-04-15T04:58:25.133Z,100658.91
2023-04-15T05:00:56.626Z,100655.94
2023-04-15T05:03:28.937Z,100650.06
2023-04-15T05:06:00.746Z,100650.41
2023-04-15T05:08:32.112Z,100636.59
2023-04-15T05:11:03.915Z,100635.75
2023-04-15T05:13:35.479Z,100638.22
2023-04-15T05:16:08.084Z,100630.66
2023-04-15T05:18:39.552Z,100626.28
2023-04-15T05:21:11.873Z,100630.19
2023-04-15T05:23:43.401Z,100615.19
2023-04-15T05:26:14.779Z,100611.53
2023-04-15T05:28:46.525Z,100606.59
2023-04-15T05:31:18.211Z,100602.66
2023-04-15T05:33:49.737Z,100593.34
2023-04-15T05:36:21.253Z,100583.56
2023-04-15T05:38:52.720Z,100573.75
2023-04-15T05:41:24.047Z,100557.44
2023-04-15T05:43:55.832Z,100562.88
2023-04-15T05:46:27.299Z,100551.03
2023-04-15T05:48:58.747Z,100556.69
2023-04-15T05:51:30.232Z,100557.41
2023-04-15T05:54:01.634Z,100547.19
2023-04-15T05:56:33.249Z,100539.13
2023-04-15T05:59:05.521Z,100531.88
2023-04-15T06:01:37.201Z,100525.44
2023-04-15T06:04:08.581Z,100521.69
2023-04-15T06:06:40.220Z,100527.44
2023-04-15T06:09:11.604Z,100516.06
2023-04-15T06:11:43.485Z,100510.13
2023-04-15T06:14:15.168Z,100487.06
2023-04-15T06:16:46.520Z,100496.66
2023-04-15T06:19:17.918Z,100480.34
2023-04-15T06:21:49.331Z,100478.22
2023-04-15T06:24:20.690Z,100471.69
2023-04-15T06:26:52.190Z,100468.47
2023-04-15T06:29:24.125Z,100457.09
2023-04-15T06:31:55.519Z,100454.13
2023-04-15T06:34:27.044Z,100452.00
2023-04-15T06:36:59.095Z,100442.75
2023-04-15T06:39:30.643Z,100430.72
2023-04-15T06:42:02.876Z,100435.50
2023-04-15T06:44:34.329Z,100437.84
2023-04-15T06:47:05.704Z,100429.75
2023-04-15T06:49:37.409Z,100427.66
2023-04-15T06:52:08.906Z,100421.19
2023-04-15T06:54:40.392Z,100424.03
2023-04-15T06:57:12.005Z,100412.47
2023-04-15T06:59:44.629Z,100399.19
2023-04-15T07:02:16.406Z,100393.00
2023-04-15T07:04:48.302Z,100394.38
2023-04-15T07:07:19.611Z,100389.66
2023-04-15T07:09:51.173Z,100380.72
2023-04-15T07:12:22.925Z,100313.22
2023-04-15T07:14:54.286Z,100372.63
2023-04-15T07:17:25.775Z,100362.34
2023-04-15T07:19:57.098Z,100359.22
2023-04-15T07:22:28.873Z,100359.78
2023-04-15T07:25:00.263Z,100348.66
2023-04-15T07:27:31.603Z,100346.75
2023-04-15T07:30:03.865Z,100343.84
2023-04-15T07:32:35.458Z,100345.25
2023-04-15T07:35:07.011Z,100336.41
2023-04-15T07:37:38.711Z,100331.88
2023-04-15T07:40:10.482Z,100328.25
2023-04-15T07:42:42.667Z,100330.53
2023-04-15T07:45:14.392Z,100318.41
2023-04-15T07:47:45.837Z,100304.66
2023-04-15T07:50:17.635Z,100291.47
2023-04-15T07:52:50.481Z,100289.63
2023-04-15T07:55:24.565Z,100300.00
2023-04-15T07:57:56.793Z,100302.41
2023-04-15T08:00:28.406Z,100300.94
2023-04-15T08:03:01.141Z,100297.47
2023-04-15T08:05:32.901Z,100294.03
2023-04-15T08:08:04.379Z,100301.16
2023-04-15T08:10:35.732Z,100307.13
2023-04-15T08:13:07.429Z,100312.34
2023-04-15T08:15:39.548Z,100309.22
2023-04-15T08:18:11.303Z,100322.34
2023-04-15T08:20:43.216Z,100333.00
2023-04-15T08:23:14.582Z,100331.69
2023-04-15T08:25:46.298Z,100329.00
2023-04-15T08:28:18.891Z,100332.06
2023-04-15T08:30:50.868Z,100327.31
2023-04-15T08:33:22.302Z,100326.25
2023-04-15T08:35:54.382Z,100319.25
2023-04-15T08:38:25.946Z,100315.94
2023-04-15T08:41:00.144Z,100307.53
2023-04-15T08:43:35.473Z,100303.06
2023-04-15T08:46:07.203Z,100301.28
2023-04-15T08:48:40.893Z,100294.59
2023-04-15T08:51:12.707Z,100295.75
2023-04-15T08:53:44.944Z,100286.56
2023-04-15T08:56:18.234Z,100278.06
2023-04-15T08:58:49.637Z,100267.47
2023-04-15T09:01:21.234Z,100255.81
2023-04-15T09:03:53.371Z,100257.13
2023-04-15T09:06:25.724Z,100249.22
2023-04-15T09:08:57.320Z,100241.22
2023-04-15T09:11:28.969Z,100236.03
2023-04-15T09:14:00.472Z,100254.28
2023-04-15T09:16:32.203Z,100261.34
2023-04-15T09:19:22.126Z,100261.72
2023-04-15T09:21:58.008Z,100210.31
2023-04-15T09:24:40.712Z,100259.22
2023-04-15T09:27:12.671Z,100267.03
2023-04-15T09:29:44.460Z,100261.84
2023-04-15T09:32:17.005Z,100271.38
2023-04-15T09:34:49.655Z,100270.22
2023-04-15T09:37:36.338Z,100261.16
2023-04-15T09:40:08.178Z,100264.25
2023-04-15T09:42:39.564Z,100274.97
2023-04-15T09:45:11.360Z,100283.00
2023-04-15T09:47:43.195Z,100291.00
2023-04-15T09:50:16.090Z,100291.00
2023-04-15T09:52:48.169Z,100286.97
2023-04-15T09:55:20.060Z,100273.44
2023-04-15T09:57:51.586Z,100256.00
2023-04-15T10:00:23.343Z,100241.88
2023-04-15T10:02:54.970Z,100255.53
2023-04-15T10:05:27.574Z,100258.25
2023-04-15T10:08:00.205Z,100270.25
2023-04-15T10:10:31.703Z,100277.69
2023-04-15T10:13:04.073Z,100287.00
2023-04-15T10:15:36.018Z,100291.81
2023-04-15T10:18:10.197Z,100301.50
2023-04-15T10:20:42.356Z,100303.63
2023-04-15T10:23:13.984Z,100298.31
2023-04-15T10:25:45.736Z,100300.44
2023-04-15T10:28:18.861Z,100313.38
2023-04-15T10:30:51.284Z,100321.16
2023-04-15T10:33:24.537Z,100336.47
2023-04-15T10:35:57.521Z,100324.25
2023-04-15T10:38:35.267Z,100318.19
2023-04-15T10:41:17.856Z,100327.81
2023-04-15T10:44:10.833Z,100354.69
2023-04-15T10:46:43.347Z,100369.53
2023-04-15T10:49:15.950Z,100374.09
2023-04-15T10:51:53.634Z,100378.56
2023-04-15T10:54:28.058Z,100374.88
2023-04-15T10:57:05.383Z,100379.81
2023-04-15T10:59:40.825Z,100379.34
2023-04-15T11:02:15.310Z,100380.97
2023-04-15T11:04:56.283Z,100391.94
2023-04-15T11:07:41.199Z,100403.38
2023-04-15T11:10:27.734Z,100404.00
2023-04-15T11:13:00.442Z,100412.59
2023-04-15T11:15:42.877Z,100423.34
2023-04-15T11:18:15.671Z,100424.16
2023-04-15T11:20:54.001Z,100419.91
2023-04-15T11:23:35.870Z,100419.91
2023-04-15T11:26:10.696Z,100425.81
2023-04-15T11:28:43.140Z,100406.28
2023-04-15T11:31:15.735Z,100401.88
2023-04-15T11:34:00.757Z,100404.47
2023-04-15T11:36:33.605Z,100407.19
2023-04-15T11:39:05.264Z,100429.22
2023-04-15T11:41:37.887Z,100456.78
2023-04-15T11:44:18.071Z,100459.94
2023-04-15T11:46:49.473Z,100444.69
2023-04-15T11:49:31.314Z,100433.59
2023-04-15T11:52:11.230Z,100422.53
2023-04-15T11:54:41.249Z,100409.28
2023-04-15T11:57:11.430Z,100419.81
2023-04-15T11:59:45.982Z,100419.47
2023-04-15T12:02:16.435Z,100407.22
2023-04-15T12:04:47.620Z,100413.25
2023-04-15T12:07:18.090Z,100427.34
2023-04-15T12:09:56.386Z,100454.31
2023-04-15T12:12:32.562Z,100489.50
2023-04-15T12:15:03.317Z,100506.78
2023-04-15T12:17:51.774Z,100514.53
2023-04-15T12:20:28.746Z,100513.31
2023-04-15T12:23:07.185Z,100511.91
2023-04-15T12:25:37.480Z,100515.94
2023-04-15T12:28:14.396Z,100527.59
2023-04-15T12:30:52.871Z,100526.88
2023-04-15T12:33:23.065Z,100517.75
2023-04-15T12:35:54.041Z,100501.34
2023-04-15T12:38:24.204Z,100501.78
2023-04-15T12:40:54.571Z,100519.50
2023-04-15T12:43:24.604Z,100549.13
2023-04-15T12:45:54.828Z,100552.41
2023-04-15T12:48:25.376Z,100563.69
2023-04-15T12:50:55.686Z,100580.38
2023-04-15T12:53:25.829Z,100588.72
2023-04-15T12:55:56.014Z,100590.56
2023-04-15T12:58:26.313Z,100591.63
2023-04-15T13:00:56.385Z,100592.44
2023-04-15T13:03:26.676Z,100568.34
2023-04-15T13:05:57.360Z,100559.00
2023-04-15T13:08:27.474Z,100553.44
2023-04-15T13:10:58.060Z,100568.00
2023-04-15T13:13:33.398Z,100581.53
2023-04-15T13:16:03.871Z,100593.41
2023-04-15T13:18:36.223Z,100609.78
2023-04-15T13:21:08.955Z,100657.00
2023-04-15T13:23:39.651Z,100711.84
2023-04-15T13:26:09.999Z,100760.13
2023-04-15T13:28:40.485Z,100810.91
2023-04-15T13:31:10.872Z,100845.44
2023-04-15T13:33:41.401Z,100898.31
2023-04-15T13:36:11.665Z,100945.97
2023-04-15T13:38:42.915Z,100996.13
2023-04-15T13:41:13.418Z,101022.53
2023-04-15T13:43:45.194Z,101041.06
2023-04-15T13:46:15.643Z,101051.88
2023-04-15T13:48:48.614Z,101055.22
2023-04-15T13:51:19.043Z,101044.38
2023-04-15T13:53:49.844Z,101023.59
2023-04-15T13:56:20.380Z,100992.41
2023-04-15T13:58:51.340Z,100965.38
2023-04-15T14:01:22.855Z,100935.03
2023-04-15T14:03:53.754Z,100952.06
2023-04-15T14:06:27.743Z,100960.19
2023-04-15T14:08:58.507Z,100954.56
2023-04-15T14:11:29.161Z,100949.53
2023-04-15T14:14:01.211Z,100967.88
2023-04-15T14:16:42.885Z,100966.19
2023-04-15T14:19:14.045Z,100946.47
2023-04-15T14:21:44.641Z,100955.81
2023-04-15T14:24:17.853Z,100963.28
2023-04-15T14:26:48.282Z,100972.03
2023-04-15T14:29:18.866Z,100961.22
2023-04-15T14:32:06.298Z,100940.03
2023-04-15T14:34:40.582Z,100916.72
2023-04-15T14:37:10.922Z,100888.88
2023-04-15T14:39:41.255Z,100863.53
2023-04-15T14:42:11.719Z,100826.94
2023-04-15T14:44:42.178Z,100794.97
2023-04-15T14:47:12.713Z,100779.81
2023-04-15T14:49:43.072Z,100787.09
2023-04-15T14:52:14.218Z,100788.53
2023-04-15T14:54:44.672Z,100776.69
2023-04-15T14:57:14.912Z,100764.66
2023-04-15T14:59:45.229Z,100752.38
2023-04-15T15:02:26.275Z,100731.44
2023-04-15T15:05:07.341Z,100722.28
2023-04-15T15:07:41.226Z,100696.75
2023-04-15T15:10:11.887Z,100682.81
2023-04-15T15:12:42.634Z,100682.81
2023-04-15T15:15:28.134Z,100684.69
2023-04-15T15:17:59.441Z,100705.25
2023-04-15T15:20:29.730Z,100733.47
2023-04-15T15:22:59.800Z,100812.44
2023-04-15T15:25:30.146Z,100862.72
2023-04-15T15:28:00.242Z,100875.19
2023-04-15T15:30:30.353Z,100855.25
2023-04-15T15:33:00.635Z,100838.41
2023-04-15T15:35:30.863Z,100827.59
2023-04-15T15:38:02.645Z,100804.97
2023-04-15T15:40:33.085Z,100767.78
2023-04-15T15:43:03.182Z,100740.16
2023-04-15T15:45:33.563Z,100729.75
2023-04-15T15:48:03.826Z,100738.91
2023-04-15T15:50:34.085Z,100772.13
2023-04-15T15:53:04.404Z,100763.41
2023-04-15T15:55:34.930Z,100755.94
2023-04-15T15:58:05.167Z,100723.94
2023-04-15T16:00:35.427Z,100737.88
2023-04-15T16:03:07.708Z,100758.44
2023-04-15T16:05:38.184Z,100750.09
2023-04-15T16:08:08.543Z,100737.41
2023-04-15T16:10:39.737Z,100699.63
2023-04-15T16:13:11.748Z,100690.69
2023-04-15T16:15:42.062Z,100690.28
2023-04-15T16:18:12.664Z,100698.59
2023-04-15T16:20:52.130Z,100687.78
2023-04-15T16:23:22.221Z,100679.91
2023-04-15T16:25:52.954Z,100678.47
2023-04-15T16:28:26.910Z,100670.38
2023-04-15T16:30:58.587Z,100655.22
2023-04-15T16:33:29.028Z,100667.47
2023-04-15T16:35:59.100Z,100643.41
2023-04-15T16:38:29.154Z,100665.44
2023-04-15T16:41:03.473Z,100662.50
2023-04-15T16:43:33.789Z,100647.94
2023-04-15T16:46:04.085Z,100640.69
2023-04-15T16:48:34.869Z,100643.16
2023-04-15T16:51:04.855Z,100647.94
2023-04-15T16:53:34.952Z,100654.41
2023-04-15T16:56:04.951Z,100658.97
2023-04-15T16:58:35.435Z,100660.84
2023-04-15T17:01:05.668Z,100652.13
2023-04-15T17:03:39.922Z,100650.47
2023-04-15T17:06:10.175Z,100646.31
2023-04-15T17:08:40.293Z,100649.22
2023-04-15T17:11:10.439Z,100653.78
2023-04-15T17:13:40.642Z,100656.91
2023-04-15T17:16:11.661Z,100660.88
2023-04-15T17:18:45.498Z,100655.47
2023-04-15T17:21:20.842Z,100668.34
2023-04-15T17:23:55.969Z,100667.13
2023-04-15T17:26:26.386Z,100662.97
2023-04-15T17:28:58.310Z,100655.88
2023-04-15T17:31:36.485Z,100665.84
2023-04-15T17:34:26.344Z,100671.69
2023-04-15T17:37:36.302Z,100662.97
2023-04-15T17:40:26.220Z,100671.06
2023-04-15T17:43:16.820Z,100678.31
2023-04-15T17:46:08.254Z,100689.34
2023-04-15T17:48:58.139Z,100682.25
2023-04-15T17:51:48.249Z,100660.09
2023-04-15T17:54:38.009Z,100660.47
2023-04-15T17:57:27.964Z,100669.63
2023-04-15T18:00:18.214Z,100669.63
2023-04-15T18:03:08.151Z,100672.50
2023-04-15T18:05:58.066Z,100689.56
2023-04-15T18:08:47.921Z,100688.91
2023-04-15T18:11:37.750Z,100681.00
2023-04-15T18:14:34.120Z,100686.63
2023-04-15T18:17:24.391Z,100683.91
2023-04-15T18:20:14.514Z,100683.28
2023-04-15T18:22:46.899Z,100678.94
2023-04-15T18:25:17.006Z,100669.16
2023-04-15T18:27:47.280Z,100661.06
2023-04-15T18:30:17.609Z,100666.69
2023-04-15T18:32:47.703Z,100654.25
2023-04-15T18:35:18.608Z,100644.28
2023-04-15T18:37:48.755Z,100631.00
2023-04-15T18:40:18.896Z,100639.31
2023-04-15T18:42:49.097Z,100632.25
2023-04-15T18:45:19.755Z,100626.22
2023-04-15T18:47:52.252Z,100621.44
2023-04-15T18:50:22.640Z,100610.88
2023-04-15T18:52:52.672Z,100605.25
2023-04-15T18:55:22.817Z,100597.19
2023-04-15T18:57:53.091Z,100598.22
2023-04-15T19:00:23.426Z,100590.34
2023-04-15T19:02:53.687Z,100586.81
2023-04-15T19:05:23.998Z,100580.78
2023-04-15T19:07:54.418Z,100581.84
2023-04-15T19:10:24.804Z,100578.50
2023-04-15T19:12:54.834Z,100563.38
2023-04-15T19:15:25.007Z,100558.81
2023-04-15T19:17:55.098Z,100555.47
2023-04-15T19:20:25.257Z,100543.88
2023-04-15T19:22:56.400Z,100538.47
2023-04-15T19:25:27.176Z,100542.22
2023-04-15T19:27:58.875Z,100534.13
2023-04-15T19:30:30.250Z,100540.34
2023-04-15T19:33:00.480Z,100529.75
2023-04-15T19:35:30.649Z,100522.31
2023-04-15T19:38:00.934Z,100530.41
2023-04-15T19:40:31.115Z,100521.69
2023-04-15T19:43:01.114Z,100523.56
2023-04-15T19:45:33.074Z,100516.53
2023-04-15T19:48:03.361Z,100524.00
2023-04-15T19:50:33.915Z,100519.41
2023-04-15T19:53:04.042Z,100526.06
2023-04-15T19:55:34.139Z,100526.06
2023-04-15T19:58:04.305Z,100529.81
2023-04-15T20:00:34.828Z,100533.53
2023-04-15T20:03:05.350Z,100523.78
2023-04-15T20:05:35.784Z,100523.78
2023-04-15T20:08:05.981Z,100527.31
2023-04-15T20:10:36.748Z,100528.13
2023-04-15T20:13:06.818Z,100525.25
2023-04-15T20:15:36.873Z,100527.94
2023-04-15T20:18:06.960Z,100527.72
2023-04-15T20:20:37.225Z,100533.09
2023-04-15T20:23:07.284Z,100534.78
2023-04-15T20:25:37.434Z,100531.03
2023-04-15T20:28:07.735Z,100529.38
2023-04-15T20:30:38.888Z,100532.09
2023-04-15T20:33:09.339Z,100526.47
2023-04-15T20:35:39.542Z,100521.94
2023-04-15T20:38:09.856Z,100531.03
2023-04-15T20:40:41.547Z,100534.78
2023-04-15T20:43:12.020Z,100533.72
2023-04-15T20:45:42.266Z,100535.59
2023-04-15T20:48:12.552Z,100534.78
2023-04-15T20:50:43.075Z,100527.72
2023-04-15T20:53:13.174Z,100537.66
2023-04-15T20:55:44.991Z,100536.84
2023-04-15T20:58:15.055Z,100536.84
2023-04-15T21:00:46.785Z,100539.75
2023-04-15T21:03:17.720Z,100545.97
2023-04-15T21:05:47.921Z,100548.69
2023-04-15T21:08:17.997Z,100549.28
2023-04-15T21:10:47.995Z,100561.13
2023-04-15T21:13:19.096Z,100554.66
2023-04-15T21:15:51.643Z,100553.84
2023-04-15T21:18:24.874Z,100562.97
2023-04-15T21:21:01.954Z,100572.94
2023-04-15T21:23:32.327Z,100573.13
2023-04-15T21:26:02.344Z,100569.63
2023-04-15T21:28:32.357Z,100568.16
2023-04-15T21:31:02.543Z,100572.94
2023-04-15T21:33:32.923Z,100583.53
2023-04-15T21:36:03.114Z,100593.66
2023-04-15T21:38:33.206Z,100598.25
2023-04-15T21:41:03.760Z,100607.38
2023-04-15T21:43:34.061Z,100611.91
2023-04-15T21:46:23.033Z,100607.56
2023-04-15T21:48:55.543Z,100605.69
2023-04-15T21:51:25.680Z,100602.38
2023-04-15T21:53:55.739Z,100600.72
2023-04-15T21:56:26.191Z,100602.78
2023-04-15T21:59:00.215Z,100595.56
2023-04-15T22:01:30.416Z,100595.75
2023-04-15T22:06:30.572Z,100595.94
2023-04-15T22:09:00.555Z,100597.00
2023-04-15T22:11:32.372Z,100602.38
2023-04-15T22:14:02.833Z,100606.94
2023-04-15T22:16:32.951Z,100607.13
2023-04-15T22:19:04.411Z,100612.53
2023-04-15T22:21:34.621Z,100621.63
2023-04-15T22:24:39.161Z,100621.47
2023-04-15T22:26:55.026Z,100625.81
2023-04-15T22:29:25.121Z,100624.31
2023-04-15T22:31:56.010Z,100622.28
2023-04-15T22:34:26.444Z,100619.59
2023-04-15T22:36:56.518Z,100618.56
2023-04-15T22:39:26.908Z,100618.56
2023-04-15T22:41:58.320Z,100623.94
2023-04-15T22:44:28.369Z,100627.47
2023-04-15T22:46:58.669Z,100638.25
2023-04-15T22:49:28.848Z,100640.13
2023-04-15T22:51:59.194Z,100635.78
2023-04-15T22:54:29.232Z,100638.47
2023-04-15T22:56:59.591Z,100642.19
2023-04-15T22:59:29.935Z,100636.78
2023-04-15T23:02:00.759Z,100644.25
2023-04-15T23:04:54.226Z,100636.00
2023-04-15T23:07:28.097Z,100641.16
2023-04-15T23:09:59.189Z,100645.09
2023-04-15T23:12:29.444Z,100637.00
2023-04-15T23:14:59.646Z,100642.63
2023-04-15T23:17:30.262Z,100648.22
2023-04-15T23:20:00.267Z,100644.44
2023-04-15T23:22:30.358Z,100664.59
2023-04-15T23:25:00.459Z,100676.25
2023-04-15T23:27:30.606Z,100665.00
2023-04-15T23:30:00.953Z,100670.41
2023-04-15T23:32:31.177Z,100680.81
2023-04-15T23:35:01.277Z,100677.91
2023-04-15T23:37:32.650Z,100671.66
2023-04-15T23:40:02.825Z,100676.00
2023-04-15T23:42:32.932Z,100671.03
2023-04-15T23:45:03.319Z,100679.13
2023-04-15T23:47:33.548Z,100678.94
2023-04-15T23:50:03.770Z,100678.31
2023-04-15T23:52:34.100Z,100687.84
2023-04-15T23:55:04.973Z,100680.38
2023-04-15T23:57:34.950Z,100676.25
